createdAt,value
2022-12-26T00:01:13.931Z,4.30
2022-12-26T00:03:43.357Z,4.93
2022-12-26T00:06:22.156Z,4.40
2022-12-26T00:08:50.101Z,6.00
2022-12-26T00:11:20.271Z,4.10
2022-12-26T00:13:50.418Z,5.67
2022-12-26T00:16:20.186Z,4.93
2022-12-26T00:18:53.699Z,4.53
2022-12-26T00:21:21.706Z,4.47
2022-12-26T00:23:57.051Z,4.57
2022-12-26T00:26:27.017Z,4.10
2022-12-26T00:28:57.548Z,3.80
2022-12-26T00:31:28.275Z,3.77
2022-12-26T00:33:58.729Z,3.97
2022-12-26T00:36:31.359Z,3.87
2022-12-26T00:39:00.704Z,3.50
2022-12-26T00:41:30.751Z,3.70
2022-12-26T00:44:00.408Z,4.30
2022-12-26T00:46:32.269Z,3.50
2022-12-26T00:49:04.407Z,5.80
2022-12-26T00:51:31.625Z,4.20
2022-12-26T00:53:58.772Z,4.00
2022-12-26T00:56:28.011Z,4.03
2022-12-26T00:58:55.111Z,4.23
2022-12-26T01:01:23.184Z,3.53
2022-12-26T01:03:51.343Z,4.13
2022-12-26T01:06:18.932Z,3.93
2022-12-26T01:08:49.102Z,4.13
2022-12-26T01:11:37.165Z,3.83
2022-12-26T01:14:08.514Z,3.93
2022-12-26T01:16:41.638Z,4.20
2022-12-26T01:19:09.443Z,4.10
2022-12-26T01:21:38.868Z,3.40
2022-12-26T01:24:06.629Z,4.20
2022-12-26T01:26:33.774Z,4.13
2022-12-26T01:29:03.438Z,4.80
2022-12-26T01:31:32.740Z,5.57
2022-12-26T01:34:04.451Z,6.50
2022-12-26T01:36:31.623Z,7.43
2022-12-26T01:38:58.890Z,8.20
2022-12-26T01:41:33.229Z,9.33
2022-12-26T01:44:01.864Z,9.17
2022-12-26T01:46:42.675Z,8.67
2022-12-26T01:49:37.624Z,10.33
2022-12-26T01:52:11.998Z,8.70
2022-12-26T01:54:45.693Z,9.47
2022-12-26T01:57:30.106Z,8.70
2022-12-26T02:00:01.829Z,8.60
2022-12-26T02:02:30.363Z,7.40
2022-12-26T02:05:18.366Z,6.43
2022-12-26T02:07:46.555Z,6.13
2022-12-26T02:10:24.144Z,6.17
2022-12-26T02:12:51.512Z,5.93
2022-12-26T02:15:18.897Z,6.27
2022-12-26T02:17:53.131Z,5.73
2022-12-26T02:20:24.758Z,5.40
2022-12-26T02:23:16.362Z,4.40
2022-12-26T02:26:17.931Z,4.37
2022-12-26T02:29:06.599Z,3.90
2022-12-26T02:32:11.465Z,3.67
2022-12-26T02:34:56.571Z,3.10
2022-12-26T02:37:34.913Z,3.53
2022-12-26T02:40:20.658Z,4.10
2022-12-26T02:43:30.623Z,2.90
2022-12-26T02:46:36.156Z,2.87
2022-12-26T02:49:28.674Z,2.57
2022-12-26T02:52:37.616Z,2.20
2022-12-26T02:55:33.277Z,2.10
2022-12-26T02:58:37.980Z,2.30
2022-12-26T03:01:32.175Z,2.60
2022-12-26T03:04:21.095Z,1.63
2022-12-26T03:07:35.869Z,1.83
2022-12-26T03:10:26.064Z,2.80
2022-12-26T03:13:11.910Z,1.60
2022-12-26T03:16:07.718Z,2.00
2022-12-26T03:18:58.071Z,1.40
2022-12-26T03:21:34.815Z,1.40
2022-12-26T03:24:01.950Z,1.67
2022-12-26T03:26:40.896Z,1.60
2022-12-26T03:29:33.194Z,1.50
2022-12-26T03:32:04.407Z,1.97
2022-12-26T03:34:31.829Z,1.80
2022-12-26T03:37:48.605Z,2.30
2022-12-26T03:41:05.368Z,2.20
2022-12-26T03:43:57.069Z,2.40
2022-12-26T03:47:22.484Z,2.50
2022-12-26T03:50:17.190Z,2.47
2022-12-26T03:53:16.394Z,3.50
2022-12-26T03:56:21.076Z,3.10
2022-12-26T03:59:30.641Z,2.73
2022-12-26T04:02:25.479Z,2.60
2022-12-26T04:05:14.387Z,2.53
2022-12-26T04:08:08.331Z,2.73
2022-12-26T04:11:04.533Z,2.70
2022-12-26T04:14:30.152Z,2.97
2022-12-26T04:17:18.948Z,2.50
2022-12-26T04:20:13.705Z,2.60
2022-12-26T04:23:29.983Z,2.20
2022-12-26T04:26:26.182Z,2.40
2022-12-26T04:29:14.151Z,1.60
2022-12-26T04:32:09.575Z,1.83
2022-12-26T04:35:04.264Z,2.10
2022-12-26T04:37:52.417Z,1.97
2022-12-26T04:40:44.929Z,1.67
2022-12-26T04:43:47.569Z,2.27
2022-12-26T04:46:23.648Z,2.93
2022-12-26T04:49:11.755Z,4.67
2022-12-26T04:51:39.091Z,3.60
2022-12-26T04:54:11.469Z,2.70
2022-12-26T04:56:38.593Z,1.77
2022-12-26T04:59:05.782Z,2.80
2022-12-26T05:01:51.634Z,2.33
2022-12-26T05:04:39.787Z,2.23
2022-12-26T05:07:33.780Z,2.90
2022-12-26T05:10:01.767Z,2.43
2022-12-26T05:12:29.000Z,2.00
2022-12-26T05:15:03.391Z,1.40
2022-12-26T05:17:59.868Z,2.30
2022-12-26T05:20:45.801Z,3.77
2022-12-26T05:23:40.012Z,1.77
2022-12-26T05:26:33.809Z,1.70
2022-12-26T05:29:03.987Z,1.70
2022-12-26T05:31:35.935Z,2.47
2022-12-26T05:34:10.744Z,2.00
2022-12-26T05:36:48.159Z,2.83
2022-12-26T05:39:18.063Z,2.53
2022-12-26T05:41:45.270Z,1.40
2022-12-26T05:44:14.768Z,1.40
2022-12-26T05:46:44.456Z,2.30
2022-12-26T05:49:11.689Z,1.77
2022-12-26T05:51:39.090Z,1.70
2022-12-26T05:54:08.480Z,1.33
2022-12-26T05:56:37.663Z,2.07
2022-12-26T05:59:04.811Z,2.20
2022-12-26T06:01:34.289Z,1.50
2022-12-26T06:04:01.771Z,0.93
2022-12-26T06:06:29.474Z,0.80
2022-12-26T06:08:59.117Z,2.90
2022-12-26T06:11:33.194Z,0.80
2022-12-26T06:14:01.984Z,0.80
2022-12-26T06:16:29.582Z,1.20
2022-12-26T06:18:58.991Z,2.50
2022-12-26T06:21:26.327Z,1.13
2022-12-26T06:23:55.777Z,1.30
2022-12-26T06:26:27.592Z,0.70
2022-12-26T06:28:54.704Z,0.83
2022-12-26T06:31:24.487Z,1.47
2022-12-26T06:33:55.790Z,1.13
2022-12-26T06:36:25.404Z,1.67
2022-12-26T06:38:53.229Z,1.60
2022-12-26T06:41:21.789Z,3.07
2022-12-26T06:43:49.681Z,3.57
2022-12-26T06:46:20.237Z,1.37
2022-12-26T06:48:50.298Z,1.80
2022-12-26T06:51:20.807Z,2.40
2022-12-26T06:53:48.959Z,0.90
2022-12-26T06:56:24.990Z,1.83
2022-12-26T06:59:00.515Z,0.70
2022-12-26T07:01:32.146Z,2.63
2022-12-26T07:04:06.983Z,1.03
2022-12-26T07:06:36.836Z,1.70
2022-12-26T07:09:10.817Z,3.13
2022-12-26T07:11:42.776Z,0.70
2022-12-26T07:14:12.603Z,2.30
2022-12-26T07:16:43.998Z,1.50
2022-12-26T07:19:13.071Z,1.20
2022-12-26T07:21:41.381Z,2.13
2022-12-26T07:24:18.479Z,2.73
2022-12-26T07:26:46.922Z,2.23
2022-12-26T07:29:14.915Z,1.57
2022-12-26T07:31:42.547Z,1.10
2022-12-26T07:34:09.949Z,1.63
2022-12-26T07:36:39.525Z,2.63
2022-12-26T07:39:09.422Z,1.73
2022-12-26T07:41:55.098Z,3.10
2022-12-26T07:44:22.229Z,1.30
2022-12-26T07:46:51.553Z,3.67
2022-12-26T07:49:20.921Z,2.40
2022-12-26T07:51:48.363Z,1.50
2022-12-26T07:54:18.465Z,1.83
2022-12-26T07:56:45.947Z,3.10
2022-12-26T07:59:20.144Z,3.13
2022-12-26T08:01:49.447Z,3.47
2022-12-26T08:04:19.068Z,3.03
2022-12-26T08:06:47.318Z,4.57
2022-12-26T08:09:18.443Z,6.80
2022-12-26T08:11:50.360Z,3.37
2022-12-26T08:14:19.691Z,4.80
2022-12-26T08:16:51.314Z,4.50
2022-12-26T08:19:20.533Z,6.40
2022-12-26T08:21:50.007Z,1.30
2022-12-26T08:24:19.753Z,5.03
2022-12-26T08:26:52.246Z,1.70
2022-12-26T08:29:24.280Z,5.33
2022-12-26T08:31:53.776Z,3.97
2022-12-26T08:34:25.720Z,5.57
2022-12-26T08:36:52.962Z,4.00
2022-12-26T08:39:22.437Z,2.97
2022-12-26T08:41:49.546Z,3.17
2022-12-26T08:44:27.341Z,3.43
2022-12-26T08:46:55.269Z,3.80
2022-12-26T08:49:22.396Z,2.63
2022-12-26T08:51:49.733Z,4.53
2022-12-26T08:54:16.862Z,1.63
2022-12-26T08:56:44.019Z,4.83
2022-12-26T08:59:14.709Z,3.47
2022-12-26T09:01:41.998Z,2.23
2022-12-26T09:04:09.349Z,6.00
2022-12-26T09:06:38.608Z,3.90
2022-12-26T09:09:08.508Z,2.77
2022-12-26T09:11:35.722Z,3.50
2022-12-26T09:14:05.783Z,5.27
2022-12-26T09:16:43.027Z,3.80
2022-12-26T09:19:17.639Z,5.90
2022-12-26T09:21:45.615Z,6.00
2022-12-26T09:24:17.864Z,4.67
2022-12-26T09:26:45.215Z,3.17
2022-12-26T09:29:15.318Z,5.80
2022-12-26T09:31:42.557Z,7.77
2022-12-26T09:34:09.871Z,6.20
2022-12-26T09:36:40.066Z,4.70
2022-12-26T09:39:13.564Z,5.07
2022-12-26T09:41:46.250Z,4.13
2022-12-26T09:44:37.861Z,2.93
2022-12-26T09:47:20.581Z,3.13
2022-12-26T09:50:13.166Z,4.40
2022-12-26T09:52:50.791Z,5.17
2022-12-26T09:55:49.094Z,3.63
2022-12-26T09:58:30.487Z,5.30
2022-12-26T10:01:13.259Z,3.17
2022-12-26T10:04:09.195Z,5.70
2022-12-26T10:06:43.872Z,6.40
2022-12-26T10:09:20.231Z,3.33
2022-12-26T10:11:56.249Z,4.47
2022-12-26T10:14:32.496Z,3.07
2022-12-26T10:17:26.897Z,2.93
2022-12-26T10:20:00.190Z,4.40
2022-12-26T10:22:39.908Z,2.60
2022-12-26T10:25:20.012Z,2.00
2022-12-26T10:27:49.888Z,3.90
2022-12-26T10:30:34.299Z,3.30
2022-12-26T10:33:12.748Z,3.87
2022-12-26T10:35:44.305Z,3.40
2022-12-26T10:38:28.177Z,2.83
2022-12-26T10:41:00.627Z,2.70
2022-12-26T10:43:33.900Z,3.87
2022-12-26T10:46:03.916Z,2.50
2022-12-26T10:48:31.098Z,4.30
2022-12-26T10:50:58.311Z,2.70
2022-12-26T10:53:25.720Z,3.67
2022-12-26T10:55:57.156Z,2.63
2022-12-26T10:58:34.529Z,4.80
2022-12-26T11:01:34.895Z,2.23
2022-12-26T11:04:05.325Z,2.53
2022-12-26T11:06:43.422Z,2.00
2022-12-26T11:09:39.002Z,2.80
2022-12-26T11:12:21.822Z,3.70
2022-12-26T11:15:02.055Z,5.63
2022-12-26T11:17:33.595Z,4.43
2022-12-26T11:20:23.853Z,3.07
2022-12-26T11:22:51.869Z,4.63
2022-12-26T11:25:24.950Z,4.33
2022-12-26T11:27:57.984Z,6.10
2022-12-26T11:30:33.849Z,5.63
2022-12-26T11:33:25.653Z,5.07
2022-12-26T11:36:17.042Z,3.47
2022-12-26T11:38:47.169Z,3.60
2022-12-26T11:41:32.245Z,3.70
2022-12-26T11:44:12.377Z,3.87
2022-12-26T11:46:54.541Z,4.07
2022-12-26T11:49:30.586Z,5.73
2022-12-26T11:52:00.739Z,3.53
2022-12-26T11:54:29.685Z,5.30
2022-12-26T11:57:06.581Z,4.27
2022-12-26T11:59:33.785Z,3.80
2022-12-26T12:02:33.118Z,2.63
2022-12-26T12:05:15.924Z,3.93
2022-12-26T12:07:57.943Z,4.27
2022-12-26T12:10:48.407Z,7.10
2022-12-26T12:13:49.923Z,5.83
2022-12-26T12:16:38.015Z,5.37
2022-12-26T12:19:13.977Z,8.40
2022-12-26T12:21:46.722Z,3.97
2022-12-26T12:24:16.907Z,3.97
2022-12-26T12:27:09.617Z,8.17
2022-12-26T12:29:58.165Z,10.17
2022-12-26T12:32:28.348Z,5.83
2022-12-26T12:35:14.406Z,5.53
2022-12-26T12:37:50.527Z,6.83
2022-12-26T12:40:50.233Z,5.43
2022-12-26T12:43:36.231Z,3.50
2022-12-26T12:46:35.776Z,5.77
2022-12-26T12:49:11.657Z,6.57
2022-12-26T12:52:03.524Z,4.93
2022-12-26T12:54:57.914Z,8.97
2022-12-26T12:57:48.400Z,6.23
2022-12-26T13:00:19.560Z,9.27
2022-12-26T13:02:54.655Z,7.17
2022-12-26T13:05:42.645Z,5.50
2022-12-26T13:08:21.090Z,6.87
2022-12-26T13:10:57.864Z,8.83
2022-12-26T13:13:41.440Z,6.90
2022-12-26T13:16:19.073Z,6.23
2022-12-26T13:19:13.286Z,8.63
2022-12-26T13:21:41.020Z,4.40
2022-12-26T13:24:28.544Z,8.37
2022-12-26T13:27:05.741Z,5.20
2022-12-26T13:29:45.387Z,7.07
2022-12-26T13:32:24.481Z,8.00
2022-12-26T13:34:57.385Z,11.47
2022-12-26T13:37:39.887Z,6.37
2022-12-26T13:40:19.479Z,6.27
2022-12-26T13:43:21.608Z,9.17
2022-12-26T13:45:50.701Z,7.07
2022-12-26T13:48:17.831Z,9.23
2022-12-26T13:51:00.116Z,6.80
2022-12-26T13:53:37.290Z,8.60
2022-12-26T13:56:30.994Z,9.67
2022-12-26T13:59:32.610Z,5.37
2022-12-26T14:02:22.738Z,11.20
2022-12-26T14:05:38.847Z,6.57
2022-12-26T14:08:13.685Z,6.40
2022-12-26T14:10:48.340Z,8.77
2022-12-26T14:13:38.971Z,9.30
2022-12-26T14:16:13.977Z,7.27
2022-12-26T14:19:22.452Z,6.57
2022-12-26T14:21:55.554Z,6.17
2022-12-26T14:24:49.882Z,6.60
2022-12-26T14:27:32.069Z,4.87
2022-12-26T14:30:30.725Z,5.13
2022-12-26T14:33:22.086Z,8.07
2022-12-26T14:36:06.584Z,4.53
2022-12-26T14:38:54.391Z,9.37
2022-12-26T14:41:41.028Z,10.40
2022-12-26T14:44:18.262Z,5.67
2022-12-26T14:46:48.142Z,4.83
2022-12-26T14:49:22.774Z,7.40
2022-12-26T14:51:50.433Z,8.10
2022-12-26T14:54:36.914Z,7.53
2022-12-26T14:57:37.950Z,8.00
2022-12-26T15:00:29.631Z,9.07
2022-12-26T15:03:00.027Z,7.40
2022-12-26T15:05:31.668Z,4.97
2022-12-26T15:08:20.540Z,6.70
2022-12-26T15:10:53.985Z,6.03
2022-12-26T15:13:42.491Z,8.43
2022-12-26T15:16:29.767Z,6.27
2022-12-26T15:19:27.848Z,9.97
2022-12-26T15:22:27.492Z,5.10
2022-12-26T15:25:20.706Z,5.07
2022-12-26T15:28:15.833Z,6.27
2022-12-26T15:30:45.564Z,8.43
2022-12-26T15:33:26.513Z,6.97
2022-12-26T15:36:35.031Z,4.30
2022-12-26T15:39:27.327Z,4.70
2022-12-26T15:42:15.571Z,4.70
2022-12-26T15:45:07.897Z,4.50
2022-12-26T15:47:58.426Z,4.63
2022-12-26T15:51:02.175Z,5.83
2022-12-26T15:53:59.268Z,10.30
2022-12-26T15:57:02.649Z,9.47
2022-12-26T16:00:01.934Z,8.00
2022-12-26T16:02:31.687Z,7.90
2022-12-26T16:05:47.785Z,4.60
2022-12-26T16:08:33.044Z,3.30
2022-12-26T16:11:15.689Z,4.67
2022-12-26T16:14:03.123Z,5.07
2022-12-26T16:16:38.256Z,6.40
2022-12-26T16:19:28.691Z,5.20
2022-12-26T16:22:31.069Z,4.93
2022-12-26T16:24:58.298Z,5.03
2022-12-26T16:27:32.299Z,3.33
2022-12-26T16:30:11.623Z,6.37
2022-12-26T16:32:43.412Z,6.80
2022-12-26T16:35:26.482Z,5.07
2022-12-26T16:37:57.036Z,6.80
2022-12-26T16:40:29.515Z,9.37
2022-12-26T16:43:26.908Z,6.30
2022-12-26T16:45:58.836Z,5.30
2022-12-26T16:48:33.133Z,8.73
2022-12-26T16:51:03.382Z,7.07
2022-12-26T16:53:38.954Z,4.70
2022-12-26T16:56:22.614Z,8.20
2022-12-26T16:58:55.312Z,8.87
2022-12-26T17:01:25.036Z,10.30
2022-12-26T17:03:59.667Z,7.93
2022-12-26T17:06:34.296Z,9.17
2022-12-26T17:09:16.902Z,6.87
2022-12-26T17:11:59.111Z,5.47
2022-12-26T17:14:33.634Z,7.87
2022-12-26T17:17:04.784Z,10.63
2022-12-26T17:19:35.980Z,11.17
2022-12-26T17:22:15.235Z,7.33
2022-12-26T17:24:43.533Z,6.60
2022-12-26T17:27:26.011Z,8.93
2022-12-26T17:30:00.618Z,7.53
2022-12-26T17:32:27.681Z,9.53
2022-12-26T17:34:55.198Z,4.63
2022-12-26T17:37:25.260Z,7.33
2022-12-26T17:40:19.817Z,8.40
2022-12-26T17:43:07.617Z,4.93
2022-12-26T17:45:46.370Z,5.40
2022-12-26T17:48:14.712Z,12.70
2022-12-26T17:50:53.610Z,6.53
2022-12-26T17:53:26.035Z,11.83
2022-12-26T17:55:57.168Z,4.83
2022-12-26T17:58:26.590Z,5.67
2022-12-26T18:00:54.389Z,8.27
2022-12-26T18:03:24.981Z,9.77
2022-12-26T18:05:56.386Z,6.73
2022-12-26T18:08:28.306Z,7.33
2022-12-26T18:10:55.941Z,7.57
2022-12-26T18:13:25.541Z,11.80
2022-12-26T18:15:57.720Z,6.67
2022-12-26T18:18:38.389Z,8.40
2022-12-26T18:21:08.492Z,10.37
2022-12-26T18:23:35.870Z,9.40
2022-12-26T18:26:06.703Z,8.27
2022-12-26T18:28:35.192Z,8.20
2022-12-26T18:31:04.924Z,5.40
2022-12-26T18:33:32.040Z,9.83
2022-12-26T18:36:07.293Z,7.97
2022-12-26T18:38:37.489Z,10.87
2022-12-26T18:41:07.388Z,8.47
2022-12-26T18:43:34.525Z,11.13
2022-12-26T18:46:04.221Z,12.23
2022-12-26T18:48:31.463Z,4.73
2022-12-26T18:51:02.760Z,8.03
2022-12-26T18:53:32.439Z,11.33
2022-12-26T18:55:59.661Z,6.47
2022-12-26T18:58:33.861Z,9.23
2022-12-26T19:01:03.095Z,14.23
2022-12-26T19:03:32.592Z,13.70
2022-12-26T19:05:59.740Z,11.47
2022-12-26T19:08:26.892Z,12.53
2022-12-26T19:10:54.091Z,8.37
2022-12-26T19:13:23.327Z,7.20
2022-12-26T19:15:50.473Z,10.20
2022-12-26T19:18:17.599Z,8.73
2022-12-26T19:20:45.109Z,10.73
2022-12-26T19:23:14.516Z,9.57
2022-12-26T19:25:41.705Z,10.00
2022-12-26T19:28:08.907Z,15.33
2022-12-26T19:30:39.326Z,12.53
2022-12-26T19:33:07.192Z,8.93
2022-12-26T19:35:36.636Z,12.93
2022-12-26T19:38:08.199Z,10.60
2022-12-26T19:40:35.329Z,12.87
2022-12-26T19:43:04.706Z,11.40
2022-12-26T19:45:32.381Z,13.60
2022-12-26T19:48:01.873Z,10.50
2022-12-26T19:50:29.034Z,10.60
2022-12-26T19:52:56.267Z,14.30
2022-12-26T19:55:23.494Z,15.37
2022-12-26T19:57:50.690Z,10.63
2022-12-26T20:00:20.525Z,10.00
2022-12-26T20:02:49.951Z,10.17
2022-12-26T20:05:21.756Z,9.97
2022-12-26T20:07:53.432Z,12.03
2022-12-26T20:10:20.636Z,9.87
2022-12-26T20:12:50.221Z,10.50
2022-12-26T20:15:17.425Z,13.30
2022-12-26T20:17:47.112Z,9.47
2022-12-26T20:20:16.853Z,10.23
2022-12-26T20:22:48.148Z,9.50
2022-12-26T20:25:19.974Z,11.17
2022-12-26T20:27:52.135Z,9.13
2022-12-26T20:30:21.784Z,9.57
2022-12-26T20:32:51.019Z,11.30
2022-12-26T20:35:22.651Z,10.73
2022-12-26T20:37:52.171Z,9.17
2022-12-26T20:40:25.339Z,10.33
2022-12-26T20:42:52.711Z,14.80
2022-12-26T20:45:22.272Z,8.67
2022-12-26T20:47:49.612Z,12.00
2022-12-26T20:50:26.721Z,10.53
2022-12-26T20:52:56.102Z,7.73
2022-12-26T20:55:28.979Z,8.40
2022-12-26T20:57:58.227Z,8.97
2022-12-26T21:00:30.879Z,11.97
2022-12-26T21:02:58.168Z,10.13
2022-12-26T21:05:27.572Z,7.90
2022-12-26T21:07:54.708Z,9.40
2022-12-26T21:10:24.398Z,8.70
2022-12-26T21:12:53.845Z,9.53
2022-12-26T21:15:21.042Z,9.33
2022-12-26T21:17:50.358Z,14.37
2022-12-26T21:20:17.611Z,7.40
2022-12-26T21:22:44.749Z,9.27
2022-12-26T21:25:11.914Z,9.37
2022-12-26T21:27:42.755Z,8.00
2022-12-26T21:30:13.196Z,10.57
2022-12-26T21:32:42.527Z,11.23
2022-12-26T21:35:09.676Z,9.03
2022-12-26T21:37:48.411Z,8.10
2022-12-26T21:40:18.247Z,7.30
2022-12-26T21:42:45.710Z,9.70
2022-12-26T21:45:15.503Z,6.43
2022-12-26T21:47:42.825Z,7.57
2022-12-26T21:50:10.162Z,8.70
2022-12-26T21:52:39.518Z,9.70
2022-12-26T21:55:25.414Z,8.57
2022-12-26T21:57:56.550Z,9.30
2022-12-26T22:00:26.255Z,8.47
2022-12-26T22:03:14.180Z,7.87
2022-12-26T22:05:42.491Z,8.17
2022-12-26T22:08:15.538Z,8.23
2022-12-26T22:11:06.254Z,10.60
2022-12-26T22:13:42.337Z,7.43
2022-12-26T22:16:13.994Z,9.03
2022-12-26T22:18:47.526Z,8.50
2022-12-26T22:21:19.519Z,7.57
2022-12-26T22:23:50.430Z,5.57
2022-12-26T22:26:18.944Z,7.27
2022-12-26T22:28:46.630Z,8.73
2022-12-26T22:31:27.464Z,9.73
2022-12-26T22:33:59.534Z,5.53
2022-12-26T22:36:30.591Z,9.00
2022-12-26T22:38:59.026Z,5.63
2022-12-26T22:41:31.011Z,8.63
2022-12-26T22:43:58.294Z,8.53
2022-12-26T22:46:31.473Z,7.10
2022-12-26T22:49:06.693Z,10.27
2022-12-26T22:51:36.198Z,10.47
2022-12-26T22:54:03.434Z,10.03
2022-12-26T22:56:30.809Z,8.23
2022-12-26T22:59:02.984Z,6.93
2022-12-26T23:01:32.531Z,8.87
2022-12-26T23:04:01.304Z,6.67
2022-12-26T23:06:31.716Z,8.77
2022-12-26T23:09:03.750Z,7.30
2022-12-26T23:11:35.041Z,6.70
2022-12-26T23:14:05.026Z,6.97
2022-12-26T23:16:45.068Z,6.60
2022-12-26T23:20:03.320Z,4.67
2022-12-26T23:22:30.943Z,9.13
2022-12-26T23:24:58.153Z,6.33
2022-12-26T23:27:43.874Z,8.37
2022-12-26T23:30:20.211Z,9.57
2022-12-26T23:32:50.651Z,10.20
2022-12-26T23:35:21.924Z,7.43
2022-12-26T23:37:54.572Z,6.83
2022-12-26T23:40:22.517Z,5.67
2022-12-26T23:42:49.630Z,6.37
2022-12-26T23:45:17.043Z,9.70
2022-12-26T23:47:45.524Z,6.83
2022-12-26T23:50:15.225Z,4.63
2022-12-26T23:52:47.553Z,8.80
2022-12-26T23:55:16.985Z,4.63
2022-12-26T23:57:44.170Z,7.27
